Time;durP1;ratioP1;P1;durP2;ratioP2;P2;SDS_P1;SDS_P2;PMS_P1;PMS_P2;Temp;Humidity;BMP_temperature;BMP_pressure;BME280_temperature;BME280_humidity;BME280_pressure;Samples;Min_cycle;Max_cycle;Signal;HPM_P1;HPM_P2
2022/01/20 00:00:20;;;;;;;17.88;4.25;;;;;;;;;;4740831;30;20048;-74
2022/01/20 00:02:55;;;;;;;11.90;3.90;;;;;;;;;;4743514;30;20056;-74
2022/01/20 00:27:13;;;;;;;10.85;4.00;;;;;;;;;;4730416;30;20051;-73
2022/01/20 00:32:30;;;;;;;13.57;3.83;;;;;;;;;;4745606;30;20128;-75
2022/01/20 00:37:27;;;;;;;13.38;3.80;;;;;;;;;;4746492;30;20043;-75
2022/01/20 00:39:53;;;;;;;10.82;3.50;;;;;;;;;;4733369;30;20506;-76
2022/01/20 00:42:19;;;;;;;12.90;3.55;;;;;;;;;;4743588;30;20028;-76
2022/01/20 00:44:45;;;;;;;14.10;3.13;;;;;;;;;;4737404;30;20387;-76
2022/01/20 00:47:11;;;;;;;10.07;3.53;;;;;;;;;;4738897;30;20090;-75
2022/01/20 00:49:37;;;;;;;10.40;3.42;;;;;;;;;;4738076;30;20049;-76
2022/01/20 00:52:03;;;;;;;9.60;2.80;;;;;;;;;;4738726;30;20036;-76
2022/01/20 00:54:29;;;;;;;12.88;3.42;;;;;;;;;;4739616;30;20044;-75
2022/01/20 00:56:55;;;;;;;9.30;3.67;;;;;;;;;;4751944;30;20094;-76
2022/01/20 00:59:20;;;;;;;6.70;2.77;;;;;;;;;;4744796;30;20039;-75
2022/01/20 01:01:46;;;;;;;13.83;3.07;;;;;;;;;;4738802;30;20483;-76
2022/01/20 01:04:11;;;;;;;15.27;3.30;;;;;;;;;;4747862;30;21049;-76
2022/01/20 01:09:06;;;;;;;8.73;3.00;;;;;;;;;;4742749;30;20076;-73
2022/01/20 01:11:33;;;;;;;14.35;3.28;;;;;;;;;;4746649;30;20127;-73
2022/01/20 01:14:00;;;;;;;;;;;;;;;;;;4744046;30;20047;-73
2022/01/20 01:16:37;;;;;;;10.25;3.20;;;;;;;;;;4744499;30;20019;-73
2022/01/20 01:22:02;;;;;;;9.50;2.55;;;;;;;;;;4746974;30;20419;-73
2022/01/20 01:24:28;;;;;;;9.88;2.80;;;;;;;;;;4752546;30;20051;-73
2022/01/20 01:26:53;;;;;;;14.60;3.50;;;;;;;;;;4747092;30;20052;-73
2022/01/20 01:29:38;;;;;;;7.17;2.90;;;;;;;;;;4745095;30;20047;-73
2022/01/20 01:32:07;;;;;;;11.63;3.30;;;;;;;;;;4737076;30;20050;-75
2022/01/20 01:34:35;;;;;;;16.95;3.53;;;;;;;;;;4744520;30;20101;-75
2022/01/20 01:39:26;;;;;;;16.47;3.70;;;;;;;;;;4743736;30;20126;-75
2022/01/20 01:41:52;;;;;;;11.23;3.47;;;;;;;;;;4742457;30;20045;-76
2022/01/20 01:44:24;;;;;;;11.60;3.50;;;;;;;;;;4742236;30;20028;-72
2022/01/20 01:46:51;;;;;;;14.52;4.72;;;;;;;;;;4738615;30;20044;-73
2022/01/20 01:49:17;;;;;;;12.05;3.70;;;;;;;;;;4744681;30;20051;-72
2022/01/20 01:51:43;;;;;;;7.38;3.45;;;;;;;;;;4738310;30;20037;-73
2022/01/20 01:54:11;;;;;;;9.13;3.00;;;;;;;;;;4735749;30;20048;-73
2022/01/20 01:56:37;;;;;;;13.02;3.67;;;;;;;;;;4747197;30;20490;-73
2022/01/20 01:59:02;;;;;;;16.87;4.40;;;;;;;;;;4742298;30;20094;-73
2022/01/20 02:01:32;;;;;;;15.17;4.50;;;;;;;;;;4748124;30;20378;-76
2022/01/20 02:04:00;;;;;;;16.63;4.03;;;;;;;;;;4747014;30;20044;-75
2022/01/20 02:19:54;;;;;;;14.60;3.15;;;;;;;;;;4736273;30;20044;-73
2022/01/20 02:22:20;;;;;;;13.32;3.15;;;;;;;;;;4738771;30;20052;-73
2022/01/20 02:24:45;;;;;;;6.70;2.07;;;;;;;;;;4744828;30;20043;-73
2022/01/20 02:27:10;;;;;;;10.30;2.57;;;;;;;;;;4730797;30;20593;-76
2022/01/20 02:29:36;;;;;;;10.00;2.20;;;;;;;;;;4741982;30;20055;-76
2022/01/20 02:32:02;;;;;;;9.43;2.37;;;;;;;;;;4738326;30;20067;-76
2022/01/20 02:34:30;;;;;;;15.10;4.10;;;;;;;;;;4739533;30;20128;-76
2022/01/20 02:36:58;;;;;;;11.02;2.30;;;;;;;;;;4737159;30;20487;-76
2022/01/20 02:39:44;;;;;;;17.52;3.90;;;;;;;;;;4752314;30;20040;-76
2022/01/20 02:45:01;;;;;;;15.40;2.50;;;;;;;;;;4740593;30;20568;-74
2022/01/20 02:47:29;;;;;;;11.63;2.58;;;;;;;;;;4738605;30;20419;-73
2022/01/20 02:49:55;;;;;;;8.88;2.90;;;;;;;;;;4741719;30;20040;-73
2022/01/20 02:52:21;;;;;;;6.87;2.60;;;;;;;;;;4743633;30;20117;-72
2022/01/20 02:54:47;;;;;;;10.02;2.35;;;;;;;;;;4743461;30;20059;-73
2022/01/20 02:57:12;;;;;;;17.67;2.33;;;;;;;;;;4741781;30;20048;-74
2022/01/20 02:59:38;;;;;;;8.83;3.30;;;;;;;;;;4742948;30;20036;-74
2022/01/20 03:02:05;;;;;;;7.80;2.10;;;;;;;;;;4746462;30;20056;-74
2022/01/20 03:04:31;;;;;;;7.50;2.03;;;;;;;;;;4745051;30;20052;-74
2022/01/20 03:06:57;;;;;;;8.50;2.00;;;;;;;;;;4750170;30;20523;-74
2022/01/20 03:09:23;;;;;;;19.65;3.25;;;;;;;;;;4738627;30;20055;-74
2022/01/20 03:11:49;;;;;;;7.60;2.40;;;;;;;;;;4738647;30;20402;-74
2022/01/20 03:14:17;;;;;;;17.00;2.85;;;;;;;;;;4734061;30;20044;-74
2022/01/20 03:16:46;;;;;;;9.75;2.03;;;;;;;;;;4734528;30;20108;-77
2022/01/20 03:19:12;;;;;;;11.75;1.92;;;;;;;;;;4731727;30;20053;-76
2022/01/20 03:21:38;;;;;;;9.77;2.70;;;;;;;;;;4738063;30;20123;-77
2022/01/20 03:24:05;;;;;;;8.90;1.42;;;;;;;;;;4733495;30;20040;-76
2022/01/20 03:26:30;;;;;;;8.38;1.70;;;;;;;;;;4734359;30;20048;-76
2022/01/20 03:28:57;;;;;;;8.13;1.70;;;;;;;;;;4740985;30;20493;-74
2022/01/20 03:31:23;;;;;;;;;;;;;;;;;;4743852;30;20111;-73
2022/01/20 03:33:48;;;;;;;13.10;1.92;;;;;;;;;;4748497;30;19928;-74
2022/01/20 03:36:13;;;;;;;8.00;3.10;;;;;;;;;;4745426;30;20045;-74
2022/01/20 03:38:39;;;;;;;8.00;1.50;;;;;;;;;;4749993;30;20482;-74
2022/01/20 03:41:04;;;;;;;8.83;2.57;;;;;;;;;;4746804;30;20135;-74
2022/01/20 03:43:30;;;;;;;16.97;2.70;;;;;;;;;;4749131;30;20036;-74
2022/01/20 03:45:57;;;;;;;8.47;2.50;;;;;;;;;;4735069;30;20033;-74
2022/01/20 03:48:26;;;;;;;14.77;2.17;;;;;;;;;;4745308;30;20051;-74
2022/01/20 03:51:00;;;;;;;6.47;1.95;;;;;;;;;;4744106;30;20057;-74
2022/01/20 03:53:28;;;;;;;12.63;1.80;;;;;;;;;;4739918;30;20128;-74
2022/01/20 03:55:54;;;;;;;15.75;1.95;;;;;;;;;;4734965;30;20036;-74
2022/01/20 03:58:20;;;;;;;8.18;1.90;;;;;;;;;;4736544;30;20033;-74
2022/01/20 04:00:45;;;;;;;7.63;1.63;;;;;;;;;;4743533;30;20040;-74
2022/01/20 04:03:15;;;;;;;10.83;2.17;;;;;;;;;;4741339;30;20052;-74
2022/01/20 04:05:56;;;;;;;8.57;1.80;;;;;;;;;;4743742;30;20098;-74
2022/01/20 04:08:33;;;;;;;11.57;1.85;;;;;;;;;;4738368;30;20037;-74
2022/01/20 04:11:04;;;;;;;4.05;1.50;;;;;;;;;;4739748;30;20044;-74
2022/01/20 04:13:31;;;;;;;13.27;2.35;;;;;;;;;;4733631;30;20047;-74
2022/01/20 04:16:20;;;;;;;12.40;2.67;;;;;;;;;;4740506;30;20044;-74
2022/01/20 04:18:53;;;;;;;8.45;1.60;;;;;;;;;;4732909;30;20453;-74
2022/01/20 04:21:20;;;;;;;6.55;2.13;;;;;;;;;;4740806;30;20426;-74
2022/01/20 04:23:46;;;;;;;9.63;1.58;;;;;;;;;;4737134;30;20037;-74
2022/01/20 04:26:11;;;;;;;7.70;1.73;;;;;;;;;;4741728;30;20044;-74
2022/01/20 04:28:37;;;;;;;12.80;1.70;;;;;;;;;;4741160;30;20055;-73
2022/01/20 04:31:02;;;;;;;6.80;1.77;;;;;;;;;;4737987;30;20115;-73
2022/01/20 04:33:27;;;;;;;15.73;2.20;;;;;;;;;;4737492;30;20136;-74
2022/01/20 04:35:53;;;;;;;8.43;1.60;;;;;;;;;;4743014;30;20068;-74
2022/01/20 04:38:18;;;;;;;15.73;2.30;;;;;;;;;;4740458;30;20024;-74
2022/01/20 04:40:44;;;;;;;8.77;1.50;;;;;;;;;;4740471;30;20142;-74
2022/01/20 04:43:09;;;;;;;8.93;1.80;;;;;;;;;;4744888;30;20462;-74
2022/01/20 04:45:42;;;;;;;9.70;2.60;;;;;;;;;;4743367;30;20174;-73
2022/01/20 04:48:25;;;;;;;9.57;1.63;;;;;;;;;;4733569;30;20383;-74
2022/01/20 04:59:03;;;;;;;3.20;1.35;;;;;;;;;;4742977;30;20063;-74
2022/01/20 05:01:29;;;;;;;7.80;2.00;;;;;;;;;;4745055;30;20106;-73
2022/01/20 05:03:55;;;;;;;6.77;1.47;;;;;;;;;;4748745;30;20048;-74
2022/01/20 05:06:21;;;;;;;8.57;2.05;;;;;;;;;;4736528;30;20068;-74
2022/01/20 05:08:48;;;;;;;11.83;2.13;;;;;;;;;;4734613;30;20080;-74
2022/01/20 05:11:15;;;;;;;9.75;2.95;;;;;;;;;;4733145;30;20059;-74
2022/01/20 05:13:40;;;;;;;13.90;2.35;;;;;;;;;;4742497;30;20049;-74
2022/01/20 05:16:06;;;;;;;17.87;2.60;;;;;;;;;;4738602;30;20048;-74
2022/01/20 05:18:32;;;;;;;9.37;2.90;;;;;;;;;;4738553;30;20121;-73
2022/01/20 05:20:57;;;;;;;10.30;2.30;;;;;;;;;;4740752;30;20063;-74
2022/01/20 05:23:23;;;;;;;7.33;2.30;;;;;;;;;;4737896;30;20100;-74
2022/01/20 05:25:48;;;;;;;6.40;1.83;;;;;;;;;;4736684;30;20040;-74
2022/01/20 05:28:14;;;;;;;14.73;3.23;;;;;;;;;;4744593;30;20470;-74
2022/01/20 05:30:40;;;;;;;12.53;2.80;;;;;;;;;;4750733;30;20044;-76
2022/01/20 05:33:06;;;;;;;11.27;2.50;;;;;;;;;;4744052;30;20053;-76
2022/01/20 05:35:31;;;;;;;15.70;2.25;;;;;;;;;;4742627;30;20090;-76
2022/01/20 05:37:57;;;;;;;10.93;2.03;;;;;;;;;;4744747;30;20390;-76
2022/01/20 05:40:23;;;;;;;9.50;2.30;;;;;;;;;;4749957;30;20131;-76
2022/01/20 05:42:48;;;;;;;17.70;3.03;;;;;;;;;;4753603;30;20032;-76
2022/01/20 05:45:13;;;;;;;14.47;2.03;;;;;;;;;;4738737;30;20456;-76
2022/01/20 05:47:47;;;;;;;10.63;1.93;;;;;;;;;;4735976;30;20142;-76
2022/01/20 05:50:18;;;;;;;15.35;5.28;;;;;;;;;;4743418;30;20111;-76
2022/01/20 05:52:45;;;;;;;14.07;4.97;;;;;;;;;;4744193;30;20059;-76
2022/01/20 05:55:13;;;;;;;10.43;3.67;;;;;;;;;;4750544;30;20036;-76
2022/01/20 05:57:38;;;;;;;12.57;4.43;;;;;;;;;;4748495;30;20032;-75
2022/01/20 06:00:06;;;;;;;10.68;4.70;;;;;;;;;;4748404;30;20512;-72
2022/01/20 06:03:35;;;;;;;11.60;3.28;;;;;;;;;;4735333;30;20060;-75
2022/01/20 06:05:21;;;;;;;9.48;2.20;;;;;;;;;;4739919;30;20051;-74
2022/01/20 06:07:46;;;;;;;10.23;2.37;;;;;;;;;;4748530;30;20048;-75
2022/01/20 06:10:11;;;;;;;7.87;1.60;;;;;;;;;;4746041;30;20045;-75
2022/01/20 06:12:37;;;;;;;11.13;1.83;;;;;;;;;;4747160;30;20024;-73
2022/01/20 06:15:02;;;;;;;5.67;1.50;;;;;;;;;;4735465;30;20052;-73
2022/01/20 06:17:29;;;;;;;8.50;2.03;;;;;;;;;;4742081;30;20071;-73
2022/01/20 06:19:54;;;;;;;6.28;1.65;;;;;;;;;;4744800;30;20066;-72
2022/01/20 06:22:20;;;;;;;3.50;1.60;;;;;;;;;;4746032;30;20052;-72
2022/01/20 06:24:45;;;;;;;7.27;1.70;;;;;;;;;;4736360;30;20036;-73
2022/01/20 06:27:11;;;;;;;13.20;2.67;;;;;;;;;;4737354;30;20102;-72
2022/01/20 06:29:36;;;;;;;10.40;2.23;;;;;;;;;;4742543;30;20127;-73
2022/01/20 06:32:02;;;;;;;6.60;1.57;;;;;;;;;;4735265;30;20121;-73
2022/01/20 06:34:27;;;;;;;8.50;2.10;;;;;;;;;;4741650;30;20051;-72
2022/01/20 06:36:53;;;;;;;10.50;2.07;;;;;;;;;;4744308;30;20107;-72
2022/01/20 06:39:18;;;;;;;9.30;1.90;;;;;;;;;;4747846;30;20048;-72
2022/01/20 06:41:44;;;;;;;8.60;1.77;;;;;;;;;;4735208;30;20240;-72
2022/01/20 06:44:09;;;;;;;7.80;1.80;;;;;;;;;;4738848;30;20054;-73
2022/01/20 06:46:34;;;;;;;14.50;2.33;;;;;;;;;;4750337;30;20047;-73
2022/01/20 06:49:00;;;;;;;8.83;2.40;;;;;;;;;;4750313;30;20059;-73
2022/01/20 06:51:25;;;;;;;8.17;1.80;;;;;;;;;;4741484;30;20047;-72
2022/01/20 06:53:51;;;;;;;10.10;1.93;;;;;;;;;;4742811;30;20101;-72
2022/01/20 06:56:16;;;;;;;12.87;2.10;;;;;;;;;;4742411;30;20032;-72
2022/01/20 06:58:41;;;;;;;8.13;1.57;;;;;;;;;;4749984;30;20123;-72
2022/01/20 07:01:07;;;;;;;8.80;1.90;;;;;;;;;;4746800;30;20123;-72
2022/01/20 07:03:32;;;;;;;10.50;2.13;;;;;;;;;;4745646;30;20060;-73
2022/01/20 07:05:57;;;;;;;4.27;1.33;;;;;;;;;;4739644;30;20132;-72
2022/01/20 07:08:23;;;;;;;9.73;2.57;;;;;;;;;;4740797;30;20123;-73
2022/01/20 07:10:48;;;;;;;5.40;2.00;;;;;;;;;;4747425;30;20390;-72
2022/01/20 07:13:14;;;;;;;10.47;1.77;;;;;;;;;;4741516;30;20382;-72
2022/01/20 07:15:39;;;;;;;9.33;2.13;;;;;;;;;;4737673;30;20104;-73
2022/01/20 07:18:05;;;;;;;7.70;2.23;;;;;;;;;;4742569;30;20397;-73
2022/01/20 07:20:30;;;;;;;8.03;1.87;;;;;;;;;;4750589;30;20505;-72
2022/01/20 07:22:55;;;;;;;7.13;1.77;;;;;;;;;;4750918;30;20447;-73
2022/01/20 07:25:21;;;;;;;14.07;2.07;;;;;;;;;;4747576;30;20079;-72
2022/01/20 07:27:46;;;;;;;11.60;2.90;;;;;;;;;;4752446;30;20478;-73
2022/01/20 07:30:12;;;;;;;7.03;1.67;;;;;;;;;;4746047;30;20067;-74
2022/01/20 07:32:38;;;;;;;7.93;2.33;;;;;;;;;;4746332;30;20497;-74
2022/01/20 07:35:04;;;;;;;9.20;2.30;;;;;;;;;;4739429;30;20197;-74
2022/01/20 07:37:29;;;;;;;7.47;1.73;;;;;;;;;;4743053;30;20555;-73
2022/01/20 07:39:56;;;;;;;8.33;1.67;;;;;;;;;;4748528;30;20029;-74
2022/01/20 07:42:21;;;;;;;15.18;2.10;;;;;;;;;;4731539;30;20383;-73
2022/01/20 07:44:47;;;;;;;9.80;1.77;;;;;;;;;;4741953;30;20051;-74
2022/01/20 07:47:12;;;;;;;4.60;1.80;;;;;;;;;;4745285;30;20042;-73
2022/01/20 07:49:37;;;;;;;28.73;8.03;;;;;;;;;;4743382;30;20071;-73
2022/01/20 07:52:03;;;;;;;11.87;4.17;;;;;;;;;;4749693;30;20426;-73
2022/01/20 07:54:28;;;;;;;9.03;2.50;;;;;;;;;;4749136;30;20044;-73
2022/01/20 07:56:54;;;;;;;6.33;2.43;;;;;;;;;;4743393;30;20052;-74
2022/01/20 07:59:19;;;;;;;8.57;1.90;;;;;;;;;;4745129;30;20047;-74
2022/01/20 08:01:45;;;;;;;17.60;2.20;;;;;;;;;;4748024;30;20466;-76
2022/01/20 08:04:10;;;;;;;12.30;3.57;;;;;;;;;;4749428;30;20077;-74
2022/01/20 08:06:35;;;;;;;15.97;2.40;;;;;;;;;;4751021;30;20040;-76
2022/01/20 08:09:01;;;;;;;6.53;2.70;;;;;;;;;;4743055;30;20040;-77
2022/01/20 08:11:26;;;;;;;11.73;2.37;;;;;;;;;;4744197;30;20079;-76
2022/01/20 08:13:52;;;;;;;8.13;2.70;;;;;;;;;;4738838;30;20024;-74
2022/01/20 08:16:18;;;;;;;17.77;3.47;;;;;;;;;;4743211;30;20039;-73
2022/01/20 08:18:43;;;;;;;12.03;3.17;;;;;;;;;;4749754;30;20044;-73
2022/01/20 08:21:09;;;;;;;15.37;2.60;;;;;;;;;;4742768;30;20148;-73
2022/01/20 08:23:34;;;;;;;12.87;4.20;;;;;;;;;;4745043;30;20048;-74
2022/01/20 08:25:59;;;;;;;11.93;4.87;;;;;;;;;;4746567;30;20049;-74
2022/01/20 08:28:25;;;;;;;13.03;3.93;;;;;;;;;;4741039;30;20120;-74
2022/01/20 08:30:51;;;;;;;7.47;2.57;;;;;;;;;;4730551;30;20387;-75
2022/01/20 08:33:17;;;;;;;16.48;3.08;;;;;;;;;;4745056;30;20041;-76
2022/01/20 08:35:43;;;;;;;12.10;4.00;;;;;;;;;;4743260;30;20547;-76
2022/01/20 08:38:08;;;;;;;19.33;5.80;;;;;;;;;;4749036;30;20057;-76
2022/01/20 08:40:35;;;;;;;28.20;6.60;;;;;;;;;;4741341;30;20049;-76
2022/01/20 08:43:01;;;;;;;19.70;6.97;;;;;;;;;;4746049;30;20118;-76
2022/01/20 08:45:30;;;;;;;59.42;18.67;;;;;;;;;;4735446;30;20087;-76
2022/01/20 08:47:57;;;;;;;38.67;14.30;;;;;;;;;;4735478;30;20498;-76
2022/01/20 08:50:24;;;;;;;35.80;13.23;;;;;;;;;;4743121;30;20066;-76
2022/01/20 08:52:49;;;;;;;31.92;10.93;;;;;;;;;;4735793;30;20501;-76
2022/01/20 08:55:15;;;;;;;35.17;12.00;;;;;;;;;;4731837;30;20049;-76
2022/01/20 08:57:40;;;;;;;29.80;9.83;;;;;;;;;;4726600;30;20132;-76
2022/01/20 09:00:07;;;;;;;35.97;12.63;;;;;;;;;;4733115;30;20281;-76
2022/01/20 09:02:32;;;;;;;35.85;11.73;;;;;;;;;;4729444;30;20455;-76
2022/01/20 09:04:59;;;;;;;33.73;12.97;;;;;;;;;;4721020;30;20056;-76
2022/01/20 09:07:25;;;;;;;36.70;17.25;;;;;;;;;;4718982;30;20444;-75
2022/01/20 09:09:51;;;;;;;33.80;14.83;;;;;;;;;;4740546;30;20052;-76
2022/01/20 09:15:28;;;;;;;28.20;8.43;;;;;;;;;;4720642;30;20546;-76
2022/01/20 09:15:28;;;;;;;29.50;12.27;;;;;;;;;;4729830;30;20037;-76
2022/01/20 09:17:57;;;;;;;17.10;4.65;;;;;;;;;;4721828;30;20179;-77
2022/01/20 09:20:23;;;;;;;17.90;2.90;;;;;;;;;;4718978;30;20138;-76
2022/01/20 09:22:50;;;;;;;13.37;3.47;;;;;;;;;;4718275;30;20132;-74
2022/01/20 09:25:16;;;;;;;22.13;6.28;;;;;;;;;;4728003;30;20040;-76
2022/01/20 09:27:42;;;;;;;14.98;3.80;;;;;;;;;;4737111;30;20498;-76
2022/01/20 09:30:08;;;;;;;296.23;34.63;;;;;;;;;;4740433;30;20055;-76
2022/01/20 09:32:37;;;;;;;41.50;6.90;;;;;;;;;;4734080;30;20049;-76
2022/01/20 09:35:04;;;;;;;37.30;5.95;;;;;;;;;;4728539;30;20384;-76
2022/01/20 09:37:29;;;;;;;11.23;3.83;;;;;;;;;;4740024;30;20122;-76
2022/01/20 09:39:55;;;;;;;15.47;5.20;;;;;;;;;;4732615;30;20566;-76
2022/01/20 09:42:21;;;;;;;21.03;5.07;;;;;;;;;;4746040;30;20043;-76
2022/01/20 09:44:47;;;;;;;14.63;4.88;;;;;;;;;;4734552;30;20044;-76
2022/01/20 09:47:15;;;;;;;17.40;4.38;;;;;;;;;;4745287;30;20040;-76
2022/01/20 09:49:41;;;;;;;10.40;4.10;;;;;;;;;;4729505;30;20041;-76
2022/01/20 09:52:07;;;;;;;17.02;5.10;;;;;;;;;;4730002;30;20049;-76
2022/01/20 09:54:32;;;;;;;19.27;6.00;;;;;;;;;;4739418;30;20036;-76
2022/01/20 09:56:58;;;;;;;11.73;4.97;;;;;;;;;;4741396;30;20109;-76
2022/01/20 09:59:24;;;;;;;19.50;6.13;;;;;;;;;;4740099;30;20048;-76
2022/01/20 10:01:52;;;;;;;23.63;7.65;;;;;;;;;;4731647;30;20053;-76
2022/01/20 10:04:36;;;;;;;19.67;7.20;;;;;;;;;;4735692;30;20131;-76
2022/01/20 10:07:09;;;;;;;23.15;6.65;;;;;;;;;;4741287;30;20048;-76
2022/01/20 10:09:39;;;;;;;15.68;4.93;;;;;;;;;;4729317;30;20053;-76
2022/01/20 10:12:06;;;;;;;17.58;5.78;;;;;;;;;;4730300;30;20044;-76
2022/01/20 10:14:58;;;;;;;;;;;;;;;;;;4736421;30;20060;-76
2022/01/20 10:17:27;;;;;;;14.63;5.30;;;;;;;;;;4729348;30;20010;-76
2022/01/20 10:20:00;;;;;;;15.38;4.32;;;;;;;;;;4735765;30;20048;-76
2022/01/20 10:22:26;;;;;;;15.40;4.75;;;;;;;;;;4741537;30;20052;-76
2022/01/20 10:25:02;;;;;;;11.73;4.40;;;;;;;;;;4735203;30;20110;-76
2022/01/20 10:27:29;;;;;;;16.95;4.43;;;;;;;;;;4739978;30;20667;-76
2022/01/20 10:30:00;;;;;;;12.40;3.15;;;;;;;;;;4732618;30;20049;-76
2022/01/20 10:32:26;;;;;;;13.60;3.92;;;;;;;;;;4731819;30;20075;-76
2022/01/20 10:35:04;;;;;;;15.75;3.83;;;;;;;;;;4730632;30;20036;-75
2022/01/20 10:37:30;;;;;;;14.52;3.80;;;;;;;;;;4731590;30;20044;-76
2022/01/20 10:40:04;;;;;;;14.27;4.20;;;;;;;;;;4732608;30;20037;-76
2022/01/20 10:42:42;;;;;;;16.15;5.22;;;;;;;;;;4732556;30;20137;-76
2022/01/20 10:45:08;;;;;;;15.77;5.32;;;;;;;;;;4731242;30;20766;-76
2022/01/20 10:47:36;;;;;;;12.68;4.53;;;;;;;;;;4736420;30;20056;-76
2022/01/20 10:50:13;;;;;;;23.45;7.45;;;;;;;;;;4740963;30;20095;-76
2022/01/20 10:52:43;;;;;;;10.75;4.63;;;;;;;;;;4738484;30;20048;-76
2022/01/20 10:55:38;;;;;;;18.75;5.43;;;;;;;;;;4730452;30;20372;-76
2022/01/20 10:58:12;;;;;;;15.30;4.55;;;;;;;;;;4726243;30;20500;-76
2022/01/20 11:00:42;;;;;;;14.68;2.50;;;;;;;;;;4742120;30;20040;-76
2022/01/20 11:03:08;;;;;;;6.20;2.30;;;;;;;;;;4731118;30;20075;-76
2022/01/20 11:05:33;;;;;;;13.23;2.60;;;;;;;;;;4730664;30;20070;-76
2022/01/20 11:08:00;;;;;;;10.60;2.73;;;;;;;;;;4736582;30;20036;-77
2022/01/20 11:10:25;;;;;;;12.32;3.25;;;;;;;;;;4736248;30;20045;-76
2022/01/20 11:12:51;;;;;;;10.27;2.53;;;;;;;;;;4731551;30;20103;-76
2022/01/20 11:15:19;;;;;;;10.27;2.90;;;;;;;;;;4740406;30;20960;-76
2022/01/20 11:17:51;;;;;;;13.07;2.92;;;;;;;;;;4737803;30;20136;-76
2022/01/20 11:20:28;;;;;;;18.25;4.35;;;;;;;;;;4743118;30;20033;-76
2022/01/20 11:22:54;;;;;;;10.77;2.85;;;;;;;;;;4731170;30;20098;-76
2022/01/20 11:25:22;;;;;;;17.27;4.20;;;;;;;;;;4740349;30;20444;-77
2022/01/20 11:27:51;;;;;;;22.33;3.85;;;;;;;;;;4745159;30;20040;-76
2022/01/20 11:30:23;;;;;;;12.10;2.97;;;;;;;;;;4741336;30;20044;-76
2022/01/20 11:32:58;;;;;;;15.10;3.22;;;;;;;;;;4746272;30;20544;-76
2022/01/20 11:35:35;;;;;;;13.32;2.83;;;;;;;;;;4740908;30;20036;-76
2022/01/20 11:38:01;;;;;;;13.85;2.97;;;;;;;;;;4740650;30;20043;-76
2022/01/20 11:40:26;;;;;;;20.37;3.30;;;;;;;;;;4732262;30;20055;-77
2022/01/20 11:43:08;;;;;;;21.47;4.83;;;;;;;;;;4732491;30;20048;-77
2022/01/20 11:45:40;;;;;;;12.93;3.05;;;;;;;;;;4734153;30;20403;-77
2022/01/20 11:48:18;;;;;;;11.77;3.75;;;;;;;;;;4737294;30;20168;-77
2022/01/20 11:50:44;;;;;;;19.35;3.67;;;;;;;;;;4726228;30;20063;-77
2022/01/20 11:53:14;;;;;;;16.15;2.75;;;;;;;;;;4729177;30;20052;-77
2022/01/20 11:55:53;;;;;;;11.15;2.50;;;;;;;;;;4739136;30;20111;-77
2022/01/20 11:58:23;;;;;;;18.77;2.70;;;;;;;;;;4734285;30;20384;-77
2022/01/20 12:00:58;;;;;;;11.68;2.75;;;;;;;;;;4733114;30;20079;-77
2022/01/20 12:03:23;;;;;;;16.25;2.70;;;;;;;;;;4730435;30;20092;-76
2022/01/20 12:05:57;;;;;;;18.60;2.97;;;;;;;;;;4738389;30;20040;-77
2022/01/20 12:08:22;;;;;;;10.77;2.83;;;;;;;;;;4734543;30;20413;-77
2022/01/20 12:11:01;;;;;;;16.37;3.07;;;;;;;;;;4729458;30;20135;-77
2022/01/20 12:13:27;;;;;;;20.88;3.03;;;;;;;;;;4730626;30;20047;-77
2022/01/20 12:15:56;;;;;;;13.70;3.23;;;;;;;;;;4734330;30;20123;-77
2022/01/20 12:18:21;;;;;;;12.52;2.28;;;;;;;;;;4744331;30;20094;-77
2022/01/20 12:20:47;;;;;;;15.40;2.97;;;;;;;;;;4734577;30;20040;-77
2022/01/20 12:23:12;;;;;;;9.07;2.30;;;;;;;;;;4736762;30;20061;-76
2022/01/20 12:25:38;;;;;;;9.20;2.87;;;;;;;;;;4734943;30;20427;-77
2022/01/20 12:28:09;;;;;;;17.05;4.13;;;;;;;;;;4739743;30;20079;-77
2022/01/20 12:30:37;;;;;;;12.98;2.72;;;;;;;;;;4729015;30;20143;-77
2022/01/20 12:33:11;;;;;;;8.50;2.20;;;;;;;;;;4740720;30;20063;-77
2022/01/20 12:35:46;;;;;;;10.00;2.00;;;;;;;;;;4746503;30;20123;-77
2022/01/20 12:38:32;;;;;;;12.25;2.67;;;;;;;;;;4736422;30;20615;-77
2022/01/20 12:41:22;;;;;;;22.38;3.20;;;;;;;;;;4731223;30;20048;-77
2022/01/20 12:43:55;;;;;;;6.65;2.50;;;;;;;;;;4736737;30;20036;-77
2022/01/20 12:46:23;;;;;;;9.38;2.15;;;;;;;;;;4739507;30;20054;-77
2022/01/20 12:48:56;;;;;;;10.10;2.15;;;;;;;;;;4735105;30;20048;-77
2022/01/20 12:51:39;;;;;;;5.97;2.72;;;;;;;;;;4737804;30;20051;-77
2022/01/20 12:54:16;;;;;;;9.82;3.20;;;;;;;;;;4750263;30;20497;-77
2022/01/20 12:56:44;;;;;;;12.82;2.08;;;;;;;;;;4733348;30;20044;-77
2022/01/20 12:59:11;;;;;;;9.68;2.40;;;;;;;;;;4735219;30;20071;-77
2022/01/20 13:01:44;;;;;;;12.07;2.67;;;;;;;;;;4743705;30;20051;-77
2022/01/20 13:04:11;;;;;;;6.88;1.85;;;;;;;;;;4733009;30;20059;-77
2022/01/20 13:06:44;;;;;;;10.93;1.77;;;;;;;;;;4730358;30;20449;-77
2022/01/20 13:09:10;;;;;;;11.82;2.10;;;;;;;;;;4737448;30;20111;-77
2022/01/20 13:11:52;;;;;;;13.03;2.20;;;;;;;;;;4739506;30;20124;-77
2022/01/20 13:14:18;;;;;;;7.25;1.92;;;;;;;;;;4738596;30;20049;-76
2022/01/20 13:16:54;;;;;;;9.50;1.80;;;;;;;;;;4741640;30;20051;-76
2022/01/20 13:19:21;;;;;;;6.93;1.83;;;;;;;;;;4735050;30;20052;-75
2022/01/20 13:21:52;;;;;;;11.50;2.20;;;;;;;;;;4740730;30;20048;-76
2022/01/20 13:24:26;;;;;;;11.20;2.03;;;;;;;;;;4739400;30;20483;-76
2022/01/20 13:26:53;;;;;;;5.05;1.98;;;;;;;;;;4736059;30;20557;-76
2022/01/20 13:29:19;;;;;;;14.13;2.78;;;;;;;;;;4735033;30;20048;-76
2022/01/20 13:31:45;;;;;;;9.45;1.80;;;;;;;;;;4741163;30;20040;-76
2022/01/20 13:34:20;;;;;;;4.35;1.70;;;;;;;;;;4735323;30;20040;-76
2022/01/20 13:36:51;;;;;;;8.45;1.40;;;;;;;;;;4731146;30;20489;-76
2022/01/20 13:39:29;;;;;;;7.47;1.27;;;;;;;;;;4731548;30;20131;-76
2022/01/20 13:45:12;;;;;;;10.00;1.70;;;;;;;;;;4731877;30;20114;-76
2022/01/20 13:47:53;;;;;;;5.03;1.35;;;;;;;;;;4736665;30;20036;-74
2022/01/20 13:50:21;;;;;;;5.78;1.30;;;;;;;;;;4743437;30;20086;-74
2022/01/20 13:52:47;;;;;;;3.55;1.50;;;;;;;;;;4744715;30;20111;-76
2022/01/20 13:55:19;;;;;;;6.17;1.43;;;;;;;;;;4734152;30;20127;-76
2022/01/20 13:57:45;;;;;;;7.00;1.45;;;;;;;;;;4738522;30;20165;-76
2022/01/20 14:00:13;;;;;;;5.03;1.77;;;;;;;;;;4739333;30;20486;-76
2022/01/20 14:02:40;;;;;;;4.82;1.05;;;;;;;;;;4731908;30;20056;-76
2022/01/20 14:05:06;;;;;;;9.50;3.35;;;;;;;;;;4740586;30;20051;-76
2022/01/20 14:07:33;;;;;;;9.13;1.40;;;;;;;;;;4729345;30;20126;-76
2022/01/20 14:09:58;;;;;;;4.63;1.40;;;;;;;;;;4745023;30;20044;-76
2022/01/20 14:12:23;;;;;;;6.73;1.50;;;;;;;;;;4746881;30;20055;-76
2022/01/20 14:14:49;;;;;;;4.00;1.30;;;;;;;;;;4742674;30;20120;-76
2022/01/20 14:17:16;;;;;;;7.73;1.70;;;;;;;;;;4732373;30;20446;-76
2022/01/20 14:19:45;;;;;;;4.72;0.93;;;;;;;;;;4735367;30;20505;-76
2022/01/20 14:22:10;;;;;;;4.78;1.15;;;;;;;;;;4736655;30;20045;-76
2022/01/20 14:24:36;;;;;;;3.13;1.10;;;;;;;;;;4750669;30;20513;-76
2022/01/20 14:27:08;;;;;;;7.27;2.27;;;;;;;;;;4732144;30;20129;-75
2022/01/20 14:29:34;;;;;;;5.03;1.55;;;;;;;;;;4745889;30;20120;-76
2022/01/20 14:31:59;;;;;;;2.57;1.00;;;;;;;;;;4747285;30;20127;-76
2022/01/20 14:34:25;;;;;;;9.47;2.00;;;;;;;;;;4742775;30;20040;-76
2022/01/20 14:36:50;;;;;;;4.57;1.27;;;;;;;;;;4737729;30;20034;-76
2022/01/20 14:39:15;;;;;;;5.67;1.70;;;;;;;;;;4735207;30;20469;-76
2022/01/20 14:41:41;;;;;;;3.77;0.97;;;;;;;;;;4740713;30;20063;-76
2022/01/20 14:44:06;;;;;;;7.27;1.33;;;;;;;;;;4740658;30;20044;-76
2022/01/20 14:46:31;;;;;;;6.80;1.13;;;;;;;;;;4733456;30;20429;-76
2022/01/20 14:49:00;;;;;;;4.13;1.50;;;;;;;;;;4736176;30;20132;-76
2022/01/20 14:51:25;;;;;;;3.03;1.15;;;;;;;;;;4737466;30;20109;-76
2022/01/20 14:53:51;;;;;;;4.03;1.03;;;;;;;;;;4732566;30;20049;-76
2022/01/20 14:56:19;;;;;;;4.23;2.40;;;;;;;;;;4731712;30;20044;-76
2022/01/20 14:58:46;;;;;;;4.05;1.00;;;;;;;;;;4736741;30;20113;-76
2022/01/20 15:01:11;;;;;;;4.97;0.88;;;;;;;;;;4744983;30;20058;-76
2022/01/20 15:03:36;;;;;;;22.87;3.43;;;;;;;;;;4738407;30;20052;-76
2022/01/20 15:06:02;;;;;;;3.83;1.23;;;;;;;;;;4724172;30;20591;-76
2022/01/20 15:08:27;;;;;;;4.80;1.43;;;;;;;;;;4733872;30;20084;-76
2022/01/20 15:10:53;;;;;;;3.47;1.07;;;;;;;;;;4733840;30;20164;-76
2022/01/20 15:13:18;;;;;;;4.70;1.57;;;;;;;;;;4735844;30;20052;-76
2022/01/20 15:15:44;;;;;;;3.70;0.90;;;;;;;;;;4726690;30;20102;-76
2022/01/20 15:18:09;;;;;;;4.37;1.27;;;;;;;;;;4729340;30;20045;-76
2022/01/20 15:20:35;;;;;;;5.07;0.97;;;;;;;;;;4739209;30;20518;-76
2022/01/20 15:23:00;;;;;;;6.47;1.10;;;;;;;;;;4732897;30;20037;-76
2022/01/20 15:25:27;;;;;;;4.43;1.10;;;;;;;;;;4744659;30;20048;-76
2022/01/20 15:27:53;;;;;;;5.63;1.23;;;;;;;;;;4732547;30;20040;-76
2022/01/20 15:30:19;;;;;;;6.30;0.98;;;;;;;;;;4741409;30;20048;-76
2022/01/20 15:32:47;;;;;;;4.07;1.10;;;;;;;;;;4732099;30;20211;-76
2022/01/20 15:35:12;;;;;;;2.40;0.80;;;;;;;;;;4746203;30;20044;-76
2022/01/20 15:37:38;;;;;;;6.70;1.57;;;;;;;;;;4742366;30;20097;-76
2022/01/20 15:40:09;;;;;;;6.83;1.17;;;;;;;;;;4744240;30;20563;-76
2022/01/20 15:42:34;;;;;;;6.22;1.95;;;;;;;;;;4730899;30;20040;-76